Terminal Aerodrome Forecast
Issued by NWS North Platte, NE

Home | Current Version | Previous Version | Graphics & Text | Print | Product List | Glossary On
Versions: 1 2 3 4 5 6 7 8 9 10 11 12 13 14 15 16 17 18 19 20 21
000
FTUS43 KLBF 242300
TAFVTN
TAF
KVTN 242320Z 2500/2524 31008KT P6SM BKN100
     FM250700 36009KT P6SM -RA BKN035 OVC100
     FM251400 33015G25KT P6SM SCT030 BKN180=

USA.gov is the U.S. government's official web portal to all federal, state and local government web resources and services.